sensor_id;sensor_type;location;lat;lon;timestamp;P1;durP1;ratioP1;P2;durP2;ratioP2
25553;SDS011;13446;50.926;5.332;2022-07-10T00:01:29;4.05;;;1.70;;
25553;SDS011;13446;50.926;5.332;2022-07-10T00:03:55;9.40;;;2.22;;
25553;SDS011;13446;50.926;5.332;2022-07-10T00:06:21;9.40;;;2.42;;
25553;SDS011;13446;50.926;5.332;2022-07-10T00:08:46;6.90;;;2.13;;
25553;SDS011;13446;50.926;5.332;2022-07-10T00:11:12;7.85;;;2.60;;
25553;SDS011;13446;50.926;5.332;2022-07-10T00:13:38;5.97;;;2.65;;
25553;SDS011;13446;50.926;5.332;2022-07-10T00:16:04;8.85;;;2.65;;
25553;SDS011;13446;50.926;5.332;2022-07-10T00:18:30;6.75;;;2.47;;
25553;SDS011;13446;50.926;5.332;2022-07-10T00:20:55;7.07;;;2.78;;
25553;SDS011;13446;50.926;5.332;2022-07-10T00:23:21;6.47;;;2.53;;
25553;SDS011;13446;50.926;5.332;2022-07-10T00:25:47;5.68;;;2.25;;
25553;SDS011;13446;50.926;5.332;2022-07-10T00:28:12;5.18;;;2.53;;
25553;SDS011;13446;50.926;5.332;2022-07-10T00:30:38;9.82;;;2.33;;
25553;SDS011;13446;50.926;5.332;2022-07-10T00:33:04;4.28;;;2.20;;
25553;SDS011;13446;50.926;5.332;2022-07-10T00:35:30;8.98;;;2.20;;
25553;SDS011;13446;50.926;5.332;2022-07-10T00:37:55;9.07;;;2.35;;
25553;SDS011;13446;50.926;5.332;2022-07-10T00:40:22;11.13;;;2.72;;
25553;SDS011;13446;50.926;5.332;2022-07-10T00:42:48;6.68;;;2.45;;
25553;SDS011;13446;50.926;5.332;2022-07-10T00:45:14;8.13;;;2.35;;
25553;SDS011;13446;50.926;5.332;2022-07-10T00:47:40;6.53;;;2.40;;
25553;SDS011;13446;50.926;5.332;2022-07-10T00:50:06;5.72;;;2.15;;
25553;SDS011;13446;50.926;5.332;2022-07-10T00:52:32;9.68;;;2.35;;
25553;SDS011;13446;50.926;5.332;2022-07-10T00:55:03;11.35;;;2.92;;
25553;SDS011;13446;50.926;5.332;2022-07-10T00:57:33;8.00;;;2.47;;
25553;SDS011;13446;50.926;5.332;2022-07-10T01:00:02;11.05;;;2.20;;
25553;SDS011;13446;50.926;5.332;2022-07-10T01:02:28;8.18;;;2.47;;
25553;SDS011;13446;50.926;5.332;2022-07-10T01:04:56;6.38;;;2.38;;
25553;SDS011;13446;50.926;5.332;2022-07-10T01:07:22;6.18;;;2.53;;
25553;SDS011;13446;50.926;5.332;2022-07-10T01:09:48;5.13;;;2.10;;
25553;SDS011;13446;50.926;5.332;2022-07-10T01:12:14;8.93;;;2.30;;
25553;SDS011;13446;50.926;5.332;2022-07-10T01:14:40;7.10;;;2.00;;
25553;SDS011;13446;50.926;5.332;2022-07-10T01:17:07;6.25;;;2.33;;
25553;SDS011;13446;50.926;5.332;2022-07-10T01:19:34;10.60;;;2.63;;
25553;SDS011;13446;50.926;5.332;2022-07-10T01:21:59;5.35;;;2.03;;
25553;SDS011;13446;50.926;5.332;2022-07-10T01:24:25;7.85;;;2.22;;
25553;SDS011;13446;50.926;5.332;2022-07-10T01:26:50;9.43;;;2.13;;
25553;SDS011;13446;50.926;5.332;2022-07-10T01:29:17;7.45;;;2.22;;
25553;SDS011;13446;50.926;5.332;2022-07-10T01:31:45;4.80;;;2.20;;
25553;SDS011;13446;50.926;5.332;2022-07-10T01:34:11;8.75;;;2.70;;
25553;SDS011;13446;50.926;5.332;2022-07-10T01:36:37;6.18;;;2.10;;
25553;SDS011;13446;50.926;5.332;2022-07-10T01:39:03;8.00;;;2.85;;
25553;SDS011;13446;50.926;5.332;2022-07-10T01:41:30;9.10;;;2.50;;
25553;SDS011;13446;50.926;5.332;2022-07-10T01:43:55;12.38;;;2.45;;
25553;SDS011;13446;50.926;5.332;2022-07-10T01:46:21;6.88;;;2.13;;
25553;SDS011;13446;50.926;5.332;2022-07-10T01:48:47;5.97;;;2.25;;
25553;SDS011;13446;50.926;5.332;2022-07-10T01:51:13;11.50;;;2.20;;
25553;SDS011;13446;50.926;5.332;2022-07-10T01:53:40;12.30;;;2.75;;
25553;SDS011;13446;50.926;5.332;2022-07-10T01:56:07;5.32;;;2.47;;
25553;SDS011;13446;50.926;5.332;2022-07-10T01:58:34;9.00;;;2.22;;
25553;SDS011;13446;50.926;5.332;2022-07-10T02:01:00;6.32;;;2.30;;
25553;SDS011;13446;50.926;5.332;2022-07-10T02:03:26;9.27;;;2.50;;
25553;SDS011;13446;50.926;5.332;2022-07-10T02:06:10;6.47;;;2.40;;
25553;SDS011;13446;50.926;5.332;2022-07-10T02:08:36;6.53;;;2.40;;
25553;SDS011;13446;50.926;5.332;2022-07-10T02:11:01;8.15;;;2.85;;
25553;SDS011;13446;50.926;5.332;2022-07-10T02:13:27;7.88;;;2.45;;
25553;SDS011;13446;50.926;5.332;2022-07-10T02:15:53;9.60;;;2.20;;
25553;SDS011;13446;50.926;5.332;2022-07-10T02:18:19;7.90;;;2.22;;
25553;SDS011;13446;50.926;5.332;2022-07-10T02:20:45;8.23;;;2.08;;
25553;SDS011;13446;50.926;5.332;2022-07-10T02:23:11;5.43;;;1.85;;
25553;SDS011;13446;50.926;5.332;2022-07-10T02:25:37;5.10;;;2.00;;
25553;SDS011;13446;50.926;5.332;2022-07-10T02:28:03;11.55;;;2.15;;
25553;SDS011;13446;50.926;5.332;2022-07-10T02:30:29;7.60;;;2.17;;
25553;SDS011;13446;50.926;5.332;2022-07-10T02:32:54;7.40;;;2.42;;
25553;SDS011;13446;50.926;5.332;2022-07-10T02:35:20;7.43;;;2.15;;
25553;SDS011;13446;50.926;5.332;2022-07-10T02:37:46;6.72;;;2.45;;
25553;SDS011;13446;50.926;5.332;2022-07-10T02:40:12;9.77;;;2.72;;
25553;SDS011;13446;50.926;5.332;2022-07-10T02:42:37;4.47;;;2.30;;
25553;SDS011;13446;50.926;5.332;2022-07-10T02:45:03;6.00;;;2.47;;
25553;SDS011;13446;50.926;5.332;2022-07-10T02:47:30;8.07;;;2.33;;
25553;SDS011;13446;50.926;5.332;2022-07-10T02:49:55;11.50;;;2.53;;
25553;SDS011;13446;50.926;5.332;2022-07-10T02:52:21;10.00;;;2.22;;
25553;SDS011;13446;50.926;5.332;2022-07-10T02:54:46;7.75;;;2.05;;
25553;SDS011;13446;50.926;5.332;2022-07-10T02:57:12;9.38;;;2.30;;
25553;SDS011;13446;50.926;5.332;2022-07-10T02:59:38;6.68;;;2.38;;
25553;SDS011;13446;50.926;5.332;2022-07-10T03:02:04;8.00;;;2.60;;
25553;SDS011;13446;50.926;5.332;2022-07-10T03:04:29;10.18;;;2.83;;
25553;SDS011;13446;50.926;5.332;2022-07-10T03:06:55;9.88;;;3.00;;
25553;SDS011;13446;50.926;5.332;2022-07-10T03:09:22;11.10;;;3.05;;
25553;SDS011;13446;50.926;5.332;2022-07-10T03:11:48;10.77;;;2.58;;
25553;SDS011;13446;50.926;5.332;2022-07-10T03:14:14;9.35;;;2.55;;
25553;SDS011;13446;50.926;5.332;2022-07-10T03:16:39;7.60;;;3.00;;
25553;SDS011;13446;50.926;5.332;2022-07-10T03:19:05;11.65;;;3.40;;
25553;SDS011;13446;50.926;5.332;2022-07-10T03:21:31;7.88;;;3.40;;
25553;SDS011;13446;50.926;5.332;2022-07-10T03:23:56;8.38;;;3.42;;
25553;SDS011;13446;50.926;5.332;2022-07-10T03:26:22;7.82;;;3.15;;
25553;SDS011;13446;50.926;5.332;2022-07-10T03:28:48;7.15;;;3.33;;
25553;SDS011;13446;50.926;5.332;2022-07-10T03:31:13;10.32;;;3.13;;
25553;SDS011;13446;50.926;5.332;2022-07-10T03:33:39;9.07;;;3.60;;
25553;SDS011;13446;50.926;5.332;2022-07-10T03:36:05;11.57;;;3.25;;
25553;SDS011;13446;50.926;5.332;2022-07-10T03:38:31;8.95;;;3.00;;
25553;SDS011;13446;50.926;5.332;2022-07-10T03:40:57;10.48;;;3.33;;
25553;SDS011;13446;50.926;5.332;2022-07-10T03:43:22;11.27;;;4.30;;
25553;SDS011;13446;50.926;5.332;2022-07-10T03:45:49;14.27;;;3.75;;
25553;SDS011;13446;50.926;5.332;2022-07-10T03:48:15;10.63;;;3.42;;
25553;SDS011;13446;50.926;5.332;2022-07-10T03:50:41;14.27;;;3.67;;
25553;SDS011;13446;50.926;5.332;2022-07-10T03:53:07;9.73;;;3.60;;
25553;SDS011;13446;50.926;5.332;2022-07-10T03:55:33;7.22;;;3.38;;
25553;SDS011;13446;50.926;5.332;2022-07-10T03:57:59;7.80;;;3.97;;
25553;SDS011;13446;50.926;5.332;2022-07-10T04:00:27;7.40;;;3.58;;
25553;SDS011;13446;50.926;5.332;2022-07-10T04:03:00;10.77;;;3.42;;
25553;SDS011;13446;50.926;5.332;2022-07-10T04:05:28;11.77;;;3.65;;
25553;SDS011;13446;50.926;5.332;2022-07-10T04:07:54;7.05;;;3.78;;
25553;SDS011;13446;50.926;5.332;2022-07-10T04:10:22;10.60;;;3.90;;
25553;SDS011;13446;50.926;5.332;2022-07-10T04:12:49;11.65;;;3.67;;
25553;SDS011;13446;50.926;5.332;2022-07-10T04:15:16;9.00;;;3.78;;
25553;SDS011;13446;50.926;5.332;2022-07-10T04:17:42;11.80;;;3.92;;
25553;SDS011;13446;50.926;5.332;2022-07-10T04:20:09;8.30;;;3.58;;
25553;SDS011;13446;50.926;5.332;2022-07-10T04:22:36;13.45;;;3.78;;
25553;SDS011;13446;50.926;5.332;2022-07-10T04:25:02;10.77;;;3.38;;
25553;SDS011;13446;50.926;5.332;2022-07-10T04:27:28;9.25;;;3.50;;
25553;SDS011;13446;50.926;5.332;2022-07-10T04:29:53;9.60;;;3.58;;
25553;SDS011;13446;50.926;5.332;2022-07-10T04:32:19;8.07;;;3.65;;
25553;SDS011;13446;50.926;5.332;2022-07-10T04:34:45;8.40;;;4.00;;
25553;SDS011;13446;50.926;5.332;2022-07-10T04:37:11;9.52;;;3.72;;
25553;SDS011;13446;50.926;5.332;2022-07-10T04:39:37;12.52;;;3.45;;
25553;SDS011;13446;50.926;5.332;2022-07-10T04:42:04;8.15;;;3.88;;
25553;SDS011;13446;50.926;5.332;2022-07-10T04:44:33;11.52;;;3.42;;
25553;SDS011;13446;50.926;5.332;2022-07-10T04:47:01;12.10;;;4.28;;
25553;SDS011;13446;50.926;5.332;2022-07-10T04:49:27;7.05;;;3.30;;
25553;SDS011;13446;50.926;5.332;2022-07-10T04:51:53;8.80;;;3.72;;
25553;SDS011;13446;50.926;5.332;2022-07-10T04:54:21;11.68;;;3.70;;
25553;SDS011;13446;50.926;5.332;2022-07-10T04:56:49;7.93;;;3.55;;
25553;SDS011;13446;50.926;5.332;2022-07-10T04:59:15;10.68;;;3.70;;
25553;SDS011;13446;50.926;5.332;2022-07-10T05:01:41;7.97;;;3.40;;
25553;SDS011;13446;50.926;5.332;2022-07-10T05:04:06;12.45;;;3.53;;
25553;SDS011;13446;50.926;5.332;2022-07-10T05:06:33;11.80;;;3.60;;
25553;SDS011;13446;50.926;5.332;2022-07-10T05:08:59;8.35;;;3.63;;
25553;SDS011;13446;50.926;5.332;2022-07-10T05:11:25;6.15;;;3.38;;
25553;SDS011;13446;50.926;5.332;2022-07-10T05:13:51;11.32;;;3.30;;
25553;SDS011;13446;50.926;5.332;2022-07-10T05:16:17;7.90;;;3.20;;
25553;SDS011;13446;50.926;5.332;2022-07-10T05:18:43;10.45;;;3.63;;
25553;SDS011;13446;50.926;5.332;2022-07-10T05:21:09;6.57;;;3.22;;
25553;SDS011;13446;50.926;5.332;2022-07-10T05:23:35;6.72;;;3.90;;
25553;SDS011;13446;50.926;5.332;2022-07-10T05:26:02;10.05;;;3.60;;
25553;SDS011;13446;50.926;5.332;2022-07-10T05:28:28;9.18;;;3.65;;
25553;SDS011;13446;50.926;5.332;2022-07-10T05:30:54;9.30;;;3.35;;
25553;SDS011;13446;50.926;5.332;2022-07-10T05:33:19;8.10;;;3.50;;
25553;SDS011;13446;50.926;5.332;2022-07-10T05:35:46;9.40;;;3.40;;
25553;SDS011;13446;50.926;5.332;2022-07-10T05:38:11;8.30;;;3.70;;
25553;SDS011;13446;50.926;5.332;2022-07-10T05:40:37;6.75;;;3.35;;
25553;SDS011;13446;50.926;5.332;2022-07-10T05:43:02;11.52;;;3.63;;
25553;SDS011;13446;50.926;5.332;2022-07-10T05:45:28;8.38;;;3.33;;
25553;SDS011;13446;50.926;5.332;2022-07-10T05:47:54;10.80;;;3.60;;
25553;SDS011;13446;50.926;5.332;2022-07-10T05:50:20;10.75;;;3.63;;
25553;SDS011;13446;50.926;5.332;2022-07-10T05:52:45;11.05;;;3.13;;
25553;SDS011;13446;50.926;5.332;2022-07-10T05:55:11;8.07;;;3.15;;
25553;SDS011;13446;50.926;5.332;2022-07-10T05:57:37;10.27;;;3.50;;
25553;SDS011;13446;50.926;5.332;2022-07-10T06:00:03;11.23;;;3.53;;
25553;SDS011;13446;50.926;5.332;2022-07-10T06:02:30;9.40;;;4.15;;
25553;SDS011;13446;50.926;5.332;2022-07-10T06:04:56;11.52;;;4.32;;
25553;SDS011;13446;50.926;5.332;2022-07-10T06:07:21;12.13;;;3.60;;
25553;SDS011;13446;50.926;5.332;2022-07-10T06:09:48;6.53;;;3.15;;
25553;SDS011;13446;50.926;5.332;2022-07-10T06:12:13;8.60;;;3.50;;
25553;SDS011;13446;50.926;5.332;2022-07-10T06:14:40;10.18;;;3.28;;
25553;SDS011;13446;50.926;5.332;2022-07-10T06:17:06;10.65;;;3.90;;
25553;SDS011;13446;50.926;5.332;2022-07-10T06:19:33;11.88;;;3.63;;
25553;SDS011;13446;50.926;5.332;2022-07-10T06:21:59;8.30;;;3.53;;
25553;SDS011;13446;50.926;5.332;2022-07-10T06:24:43;7.85;;;3.38;;
25553;SDS011;13446;50.926;5.332;2022-07-10T06:27:09;9.13;;;3.35;;
25553;SDS011;13446;50.926;5.332;2022-07-10T06:29:35;7.55;;;2.88;;
25553;SDS011;13446;50.926;5.332;2022-07-10T06:32:00;8.43;;;3.25;;
25553;SDS011;13446;50.926;5.332;2022-07-10T06:34:26;11.98;;;2.95;;
25553;SDS011;13446;50.926;5.332;2022-07-10T06:36:52;12.10;;;2.28;;
25553;SDS011;13446;50.926;5.332;2022-07-10T06:39:17;7.85;;;2.65;;
25553;SDS011;13446;50.926;5.332;2022-07-10T06:41:43;7.38;;;2.70;;
25553;SDS011;13446;50.926;5.332;2022-07-10T06:44:09;8.45;;;2.70;;
25553;SDS011;13446;50.926;5.332;2022-07-10T06:46:35;7.65;;;2.20;;
25553;SDS011;13446;50.926;5.332;2022-07-10T06:49:00;7.13;;;2.15;;
25553;SDS011;13446;50.926;5.332;2022-07-10T06:51:26;5.80;;;1.75;;
25553;SDS011;13446;50.926;5.332;2022-07-10T06:53:51;10.00;;;1.88;;
25553;SDS011;13446;50.926;5.332;2022-07-10T06:56:17;6.18;;;1.75;;
25553;SDS011;13446;50.926;5.332;2022-07-10T06:58:44;5.22;;;1.55;;
25553;SDS011;13446;50.926;5.332;2022-07-10T07:01:09;7.78;;;1.90;;
25553;SDS011;13446;50.926;5.332;2022-07-10T07:03:37;7.22;;;1.63;;
25553;SDS011;13446;50.926;5.332;2022-07-10T07:06:02;5.78;;;1.75;;
25553;SDS011;13446;50.926;5.332;2022-07-10T07:08:29;3.80;;;1.80;;
25553;SDS011;13446;50.926;5.332;2022-07-10T07:10:54;4.90;;;1.83;;
25553;SDS011;13446;50.926;5.332;2022-07-10T07:13:21;5.07;;;1.67;;
25553;SDS011;13446;50.926;5.332;2022-07-10T07:15:47;3.55;;;1.40;;
25553;SDS011;13446;50.926;5.332;2022-07-10T07:18:24;5.55;;;1.63;;
25553;SDS011;13446;50.926;5.332;2022-07-10T07:20:57;8.93;;;1.60;;
25553;SDS011;13446;50.926;5.332;2022-07-10T07:23:42;6.25;;;1.27;;
25553;SDS011;13446;50.926;5.332;2022-07-10T07:26:08;7.05;;;1.70;;
25553;SDS011;13446;50.926;5.332;2022-07-10T07:28:34;4.97;;;1.45;;
25553;SDS011;13446;50.926;5.332;2022-07-10T07:30:59;5.13;;;1.40;;
25553;SDS011;13446;50.926;5.332;2022-07-10T07:33:25;5.22;;;1.42;;
25553;SDS011;13446;50.926;5.332;2022-07-10T07:35:50;5.53;;;1.67;;
25553;SDS011;13446;50.926;5.332;2022-07-10T07:38:16;5.57;;;1.50;;
25553;SDS011;13446;50.926;5.332;2022-07-10T07:40:42;8.90;;;1.40;;
25553;SDS011;13446;50.926;5.332;2022-07-10T07:43:08;4.88;;;1.35;;
25553;SDS011;13446;50.926;5.332;2022-07-10T07:45:35;5.15;;;1.50;;
25553;SDS011;13446;50.926;5.332;2022-07-10T07:48:01;5.00;;;1.40;;
25553;SDS011;13446;50.926;5.332;2022-07-10T07:50:29;3.65;;;1.33;;
25553;SDS011;13446;50.926;5.332;2022-07-10T07:53:01;5.65;;;1.17;;
25553;SDS011;13446;50.926;5.332;2022-07-10T07:55:28;5.53;;;1.50;;
25553;SDS011;13446;50.926;5.332;2022-07-10T07:57:55;2.55;;;1.08;;
25553;SDS011;13446;50.926;5.332;2022-07-10T08:00:22;5.25;;;1.40;;
25553;SDS011;13446;50.926;5.332;2022-07-10T08:02:50;5.25;;;1.50;;
25553;SDS011;13446;50.926;5.332;2022-07-10T08:05:17;8.77;;;1.50;;
25553;SDS011;13446;50.926;5.332;2022-07-10T08:07:45;6.95;;;1.38;;
25553;SDS011;13446;50.926;5.332;2022-07-10T08:10:17;5.18;;;1.50;;
25553;SDS011;13446;50.926;5.332;2022-07-10T08:12:45;4.80;;;1.38;;
25553;SDS011;13446;50.926;5.332;2022-07-10T08:15:11;4.15;;;1.17;;
25553;SDS011;13446;50.926;5.332;2022-07-10T08:17:39;5.28;;;1.30;;
25553;SDS011;13446;50.926;5.332;2022-07-10T08:20:06;3.63;;;1.13;;
25553;SDS011;13446;50.926;5.332;2022-07-10T08:22:37;6.78;;;1.80;;
25553;SDS011;13446;50.926;5.332;2022-07-10T08:25:03;7.45;;;1.40;;
25553;SDS011;13446;50.926;5.332;2022-07-10T08:27:29;3.00;;;1.33;;
25553;SDS011;13446;50.926;5.332;2022-07-10T08:29:55;7.75;;;1.63;;
25553;SDS011;13446;50.926;5.332;2022-07-10T08:32:20;4.88;;;1.70;;
25553;SDS011;13446;50.926;5.332;2022-07-10T08:34:46;6.05;;;1.50;;
25553;SDS011;13446;50.926;5.332;2022-07-10T08:37:14;5.07;;;1.40;;
25553;SDS011;13446;50.926;5.332;2022-07-10T08:39:41;4.60;;;1.20;;
25553;SDS011;13446;50.926;5.332;2022-07-10T08:42:06;5.90;;;1.30;;
25553;SDS011;13446;50.926;5.332;2022-07-10T08:44:35;4.03;;;1.23;;
25553;SDS011;13446;50.926;5.332;2022-07-10T08:47:01;6.60;;;1.63;;
25553;SDS011;13446;50.926;5.332;2022-07-10T08:49:29;5.47;;;1.40;;
25553;SDS011;13446;50.926;5.332;2022-07-10T08:51:57;4.68;;;1.60;;
25553;SDS011;13446;50.926;5.332;2022-07-10T08:54:28;4.70;;;1.20;;
25553;SDS011;13446;50.926;5.332;2022-07-10T08:56:59;6.38;;;1.60;;
25553;SDS011;13446;50.926;5.332;2022-07-10T08:59:35;3.47;;;1.30;;
25553;SDS011;13446;50.926;5.332;2022-07-10T09:02:01;4.05;;;1.50;;
25553;SDS011;13446;50.926;5.332;2022-07-10T09:04:27;5.80;;;1.38;;
25553;SDS011;13446;50.926;5.332;2022-07-10T09:06:53;9.38;;;1.60;;
25553;SDS011;13446;50.926;5.332;2022-07-10T09:09:20;6.50;;;1.55;;
25553;SDS011;13446;50.926;5.332;2022-07-10T09:11:46;6.93;;;1.35;;
25553;SDS011;13446;50.926;5.332;2022-07-10T09:14:13;3.08;;;1.25;;
25553;SDS011;13446;50.926;5.332;2022-07-10T09:16:41;4.82;;;1.30;;
25553;SDS011;13446;50.926;5.332;2022-07-10T09:21:44;3.58;;;1.58;;
25553;SDS011;13446;50.926;5.332;2022-07-10T09:24:15;5.32;;;1.40;;
25553;SDS011;13446;50.926;5.332;2022-07-10T09:26:57;7.90;;;1.70;;
25553;SDS011;13446;50.926;5.332;2022-07-10T09:29:23;3.70;;;1.50;;
25553;SDS011;13446;50.926;5.332;2022-07-10T09:34:40;4.78;;;1.30;;
25553;SDS011;13446;50.926;5.332;2022-07-10T09:37:25;6.13;;;1.70;;
25553;SDS011;13446;50.926;5.332;2022-07-10T09:42:28;4.95;;;1.38;;
25553;SDS011;13446;50.926;5.332;2022-07-10T09:50:23;5.38;;;1.60;;
25553;SDS011;13446;50.926;5.332;2022-07-10T09:52:54;7.32;;;1.55;;
25553;SDS011;13446;50.926;5.332;2022-07-10T09:55:35;5.35;;;1.48;;
25553;SDS011;13446;50.926;5.332;2022-07-10T09:58:02;7.22;;;1.45;;
25553;SDS011;13446;50.926;5.332;2022-07-10T10:00:29;8.35;;;2.25;;
25553;SDS011;13446;50.926;5.332;2022-07-10T10:03:08;4.88;;;1.90;;
25553;SDS011;13446;50.926;5.332;2022-07-10T10:05:43;6.68;;;1.73;;
25553;SDS011;13446;50.926;5.332;2022-07-10T10:08:19;8.45;;;1.50;;
25553;SDS011;13446;50.926;5.332;2022-07-10T10:10:50;4.63;;;1.50;;
25553;SDS011;13446;50.926;5.332;2022-07-10T10:13:17;7.93;;;2.75;;
25553;SDS011;13446;50.926;5.332;2022-07-10T10:15:50;3.47;;;1.67;;
25553;SDS011;13446;50.926;5.332;2022-07-10T10:18:18;8.10;;;1.85;;
25553;SDS011;13446;50.926;5.332;2022-07-10T10:23:15;6.13;;;1.80;;
25553;SDS011;13446;50.926;5.332;2022-07-10T10:25:48;5.55;;;1.63;;
25553;SDS011;13446;50.926;5.332;2022-07-10T10:28:20;3.17;;;1.55;;
25553;SDS011;13446;50.926;5.332;2022-07-10T10:30:48;6.38;;;1.42;;
25553;SDS011;13446;50.926;5.332;2022-07-10T10:36:01;3.80;;;1.40;;
25553;SDS011;13446;50.926;5.332;2022-07-10T10:41:28;7.78;;;1.70;;
25553;SDS011;13446;50.926;5.332;2022-07-10T10:49:16;4.82;;;1.73;;
25553;SDS011;13446;50.926;5.332;2022-07-10T10:54:29;6.90;;;2.03;;
25553;SDS011;13446;50.926;5.332;2022-07-10T10:57:15;8.55;;;1.90;;
25553;SDS011;13446;50.926;5.332;2022-07-10T11:13:56;8.75;;;1.75;;
25553;SDS011;13446;50.926;5.332;2022-07-10T11:16:22;6.70;;;1.80;;
25553;SDS011;13446;50.926;5.332;2022-07-10T11:18:52;6.05;;;1.60;;
25553;SDS011;13446;50.926;5.332;2022-07-10T11:21:23;5.65;;;1.73;;
25553;SDS011;13446;50.926;5.332;2022-07-10T11:26:49;4.85;;;1.70;;
25553;SDS011;13446;50.926;5.332;2022-07-10T11:29:23;4.63;;;1.45;;
25553;SDS011;13446;50.926;5.332;2022-07-10T11:31:54;4.88;;;1.50;;
25553;SDS011;13446;50.926;5.332;2022-07-10T11:34:23;4.43;;;1.77;;
25553;SDS011;13446;50.926;5.332;2022-07-10T11:36:58;5.88;;;1.70;;
25553;SDS011;13446;50.926;5.332;2022-07-10T11:39:24;6.38;;;1.70;;
25553;SDS011;13446;50.926;5.332;2022-07-10T11:41:50;8.85;;;2.80;;
25553;SDS011;13446;50.926;5.332;2022-07-10T11:44:16;10.20;;;2.45;;
25553;SDS011;13446;50.926;5.332;2022-07-10T11:46:43;5.65;;;2.13;;
25553;SDS011;13446;50.926;5.332;2022-07-10T11:49:10;7.00;;;2.28;;
25553;SDS011;13446;50.926;5.332;2022-07-10T11:51:38;6.35;;;2.13;;
25553;SDS011;13446;50.926;5.332;2022-07-10T11:56:38;5.05;;;1.80;;
25553;SDS011;13446;50.926;5.332;2022-07-10T11:59:09;6.93;;;2.33;;
25553;SDS011;13446;50.926;5.332;2022-07-10T12:01:50;8.13;;;2.30;;
25553;SDS011;13446;50.926;5.332;2022-07-10T12:04:19;3.85;;;1.83;;
25553;SDS011;13446;50.926;5.332;2022-07-10T12:06:49;5.10;;;1.98;;
25553;SDS011;13446;50.926;5.332;2022-07-10T12:09:17;7.53;;;1.75;;
25553;SDS011;13446;50.926;5.332;2022-07-10T12:12:01;4.88;;;2.10;;
25553;SDS011;13446;50.926;5.332;2022-07-10T12:14:31;7.07;;;2.00;;
25553;SDS011;13446;50.926;5.332;2022-07-10T12:16:58;6.20;;;2.00;;
25553;SDS011;13446;50.926;5.332;2022-07-10T12:19:25;8.30;;;2.35;;
25553;SDS011;13446;50.926;5.332;2022-07-10T12:21:56;3.33;;;1.80;;
25553;SDS011;13446;50.926;5.332;2022-07-10T12:24:23;8.82;;;2.30;;
25553;SDS011;13446;50.926;5.332;2022-07-10T12:26:51;2.92;;;1.50;;
25553;SDS011;13446;50.926;5.332;2022-07-10T12:31:51;5.47;;;1.70;;
25553;SDS011;13446;50.926;5.332;2022-07-10T12:34:19;3.95;;;1.73;;
25553;SDS011;13446;50.926;5.332;2022-07-10T12:36:52;4.93;;;1.88;;
25553;SDS011;13446;50.926;5.332;2022-07-10T12:39:19;6.45;;;2.30;;
25553;SDS011;13446;50.926;5.332;2022-07-10T12:44:35;6.53;;;2.05;;
25553;SDS011;13446;50.926;5.332;2022-07-10T12:52:19;6.18;;;2.28;;
25553;SDS011;13446;50.926;5.332;2022-07-10T12:57:14;3.80;;;2.05;;
25553;SDS011;13446;50.926;5.332;2022-07-10T12:59:39;6.32;;;2.55;;
25553;SDS011;13446;50.926;5.332;2022-07-10T13:02:19;5.05;;;2.58;;
25553;SDS011;13446;50.926;5.332;2022-07-10T13:04:53;5.53;;;2.40;;
25553;SDS011;13446;50.926;5.332;2022-07-10T13:07:31;7.22;;;2.13;;
25553;SDS011;13446;50.926;5.332;2022-07-10T13:10:15;4.90;;;2.08;;
25553;SDS011;13446;50.926;5.332;2022-07-10T13:12:41;4.70;;;2.15;;
25553;SDS011;13446;50.926;5.332;2022-07-10T13:15:07;5.38;;;2.20;;
25553;SDS011;13446;50.926;5.332;2022-07-10T13:17:33;4.80;;;2.13;;
25553;SDS011;13446;50.926;5.332;2022-07-10T13:19:58;7.70;;;2.20;;
25553;SDS011;13446;50.926;5.332;2022-07-10T13:22:27;6.80;;;2.38;;
25553;SDS011;13446;50.926;5.332;2022-07-10T13:24:54;7.07;;;2.38;;
25553;SDS011;13446;50.926;5.332;2022-07-10T13:27:20;4.20;;;1.95;;
25553;SDS011;13446;50.926;5.332;2022-07-10T13:29:46;3.17;;;2.30;;
25553;SDS011;13446;50.926;5.332;2022-07-10T13:32:13;6.72;;;1.90;;
25553;SDS011;13446;50.926;5.332;2022-07-10T13:34:38;8.50;;;2.17;;
25553;SDS011;13446;50.926;5.332;2022-07-10T13:37:04;2.83;;;1.90;;
25553;SDS011;13446;50.926;5.332;2022-07-10T13:39:30;4.47;;;1.88;;
25553;SDS011;13446;50.926;5.332;2022-07-10T13:41:58;7.20;;;1.70;;
25553;SDS011;13446;50.926;5.332;2022-07-10T13:44:23;3.72;;;1.95;;
25553;SDS011;13446;50.926;5.332;2022-07-10T13:46:49;10.75;;;3.95;;
25553;SDS011;13446;50.926;5.332;2022-07-10T13:49:15;5.03;;;2.15;;
25553;SDS011;13446;50.926;5.332;2022-07-10T13:51:41;13.63;;;8.93;;
25553;SDS011;13446;50.926;5.332;2022-07-10T13:54:07;3.45;;;2.13;;
25553;SDS011;13446;50.926;5.332;2022-07-10T13:56:32;5.70;;;1.70;;
25553;SDS011;13446;50.926;5.332;2022-07-10T13:58:58;3.15;;;1.40;;
25553;SDS011;13446;50.926;5.332;2022-07-10T14:01:24;4.75;;;1.88;;
25553;SDS011;13446;50.926;5.332;2022-07-10T14:03:49;5.30;;;1.98;;
25553;SDS011;13446;50.926;5.332;2022-07-10T14:06:16;5.72;;;1.95;;
25553;SDS011;13446;50.926;5.332;2022-07-10T14:08:45;3.40;;;1.67;;
25553;SDS011;13446;50.926;5.332;2022-07-10T14:11:11;4.07;;;1.50;;
25553;SDS011;13446;50.926;5.332;2022-07-10T14:13:36;4.18;;;1.50;;
25553;SDS011;13446;50.926;5.332;2022-07-10T14:16:02;4.10;;;1.40;;
25553;SDS011;13446;50.926;5.332;2022-07-10T14:18:28;5.32;;;1.55;;
25553;SDS011;13446;50.926;5.332;2022-07-10T14:21:02;4.40;;;1.58;;
25553;SDS011;13446;50.926;5.332;2022-07-10T14:23:27;3.67;;;1.73;;
25553;SDS011;13446;50.926;5.332;2022-07-10T14:25:53;2.67;;;1.67;;
25553;SDS011;13446;50.926;5.332;2022-07-10T14:28:20;5.25;;;1.80;;
25553;SDS011;13446;50.926;5.332;2022-07-10T14:30:46;5.88;;;1.88;;
25553;SDS011;13446;50.926;5.332;2022-07-10T14:33:13;2.70;;;1.60;;
25553;SDS011;13446;50.926;5.332;2022-07-10T14:35:38;3.22;;;1.67;;
25553;SDS011;13446;50.926;5.332;2022-07-10T14:38:05;3.55;;;1.65;;
25553;SDS011;13446;50.926;5.332;2022-07-10T14:40:31;4.47;;;1.98;;
25553;SDS011;13446;50.926;5.332;2022-07-10T14:42:58;4.47;;;1.75;;
25553;SDS011;13446;50.926;5.332;2022-07-10T14:45:26;5.70;;;1.88;;
25553;SDS011;13446;50.926;5.332;2022-07-10T14:47:51;6.13;;;1.60;;
25553;SDS011;13446;50.926;5.332;2022-07-10T14:50:19;3.95;;;1.77;;
25553;SDS011;13446;50.926;5.332;2022-07-10T14:52:45;8.68;;;1.85;;
25553;SDS011;13446;50.926;5.332;2022-07-10T14:55:10;7.53;;;1.77;;
25553;SDS011;13446;50.926;5.332;2022-07-10T14:57:36;3.97;;;1.70;;
25553;SDS011;13446;50.926;5.332;2022-07-10T15:00:03;5.50;;;1.80;;
25553;SDS011;13446;50.926;5.332;2022-07-10T15:02:30;2.67;;;1.80;;
25553;SDS011;13446;50.926;5.332;2022-07-10T15:04:56;2.95;;;1.42;;
25553;SDS011;13446;50.926;5.332;2022-07-10T15:07:22;6.45;;;1.70;;
25553;SDS011;13446;50.926;5.332;2022-07-10T15:09:47;4.45;;;1.80;;
25553;SDS011;13446;50.926;5.332;2022-07-10T15:12:14;5.78;;;1.77;;
25553;SDS011;13446;50.926;5.332;2022-07-10T15:14:41;4.20;;;1.83;;
25553;SDS011;13446;50.926;5.332;2022-07-10T15:17:08;5.35;;;1.92;;
25553;SDS011;13446;50.926;5.332;2022-07-10T15:19:33;6.13;;;1.52;;
25553;SDS011;13446;50.926;5.332;2022-07-10T15:21:59;5.80;;;1.45;;
25553;SDS011;13446;50.926;5.332;2022-07-10T15:24:25;4.57;;;1.52;;
25553;SDS011;13446;50.926;5.332;2022-07-10T15:26:50;6.13;;;1.52;;
25553;SDS011;13446;50.926;5.332;2022-07-10T15:29:16;5.30;;;1.92;;
25553;SDS011;13446;50.926;5.332;2022-07-10T15:31:42;2.90;;;1.45;;
25553;SDS011;13446;50.926;5.332;2022-07-10T15:34:09;4.45;;;1.50;;
25553;SDS011;13446;50.926;5.332;2022-07-10T15:36:37;5.72;;;1.50;;
25553;SDS011;13446;50.926;5.332;2022-07-10T15:39:03;3.80;;;1.60;;
25553;SDS011;13446;50.926;5.332;2022-07-10T15:41:29;3.40;;;1.65;;
25553;SDS011;13446;50.926;5.332;2022-07-10T15:43:55;4.13;;;1.60;;
25553;SDS011;13446;50.926;5.332;2022-07-10T15:46:20;2.78;;;1.60;;
25553;SDS011;13446;50.926;5.332;2022-07-10T15:48:46;7.35;;;1.98;;